עמוד ראשי
METAR-TAF:

METAR-TAF

שדות תעופה :

Guymon, אוקלהומה, ארצות הברית

קו רוחב: 36-40-54N, קו אורך: 101-30-19W, גובה: 952מטר

תצפית מזג אוויר נוכחית

הדו"ח נערך לפני 51דקות, בשעה 11:53 UTC
רוח רגועה
טמפרטורת 16 צלסיוס
לחות 88%
לחץ 1024 hPa
ראות: 16.1קילומטר
שמיים נקיים

METAR: KGUY 251153Z AUTO 00000KT 10SM CLR 16/14 A3023 RMK AO2 SLP191 T01560139 10200 20150 53000

זמן: 07:44 (12:44 UTC)

תחזית

הדו"ח נערך לפני 1 שעות ו 24דקות, בשעה 11:20 UTC
תחזית בתוקף מ 25 ב 12 UTC עד 26 ב 12 UTC
רוח 5קשר מכיוון דרום-מזרח
ראות: 9.7קילומטר
שמיים נקיים
אובך
מ 25 ב 1500UTC
רוח 7קשר מכיוון דרום/דרום-מערב
ראות: 10קילומטר
שמיים נקיים
מ 25 ב 2100UTC
רוח 9קשר מכיוון דרום/דרום-מזרח
ראות: 10קילומטר
שמיים נקיים
מ 25 ב 2300UTC
רוח 10קשר מכיוון דרום-מזרח
ראות: 10קילומטר
שמיים נקיים

TAF: KGUY 251120Z 2512/2612 14005KT 6SM HZ SKC FM251500 20007KT P6SM SKC FM252100 15009KT P6SM SKC FM252300 13010KT P6SM SKC

תצפיות ותחזיות מזג אוויר לגבי יותר מ- 4,000 שדות תעופה ברחבי העולם. דוחות METAR ו- TAF.

התחנות הזמינות מסומנות בנקודות צהובות ואדומות על גבי המפה.

העבר את העכבר לנקודה הצבעונית על מנת לראות את שם התחנה.

לאחר מכן, לחץ כדי לראות את תוכן ואת תחזיות מזג האוויר.

כדי לשנות את המפה: לחץ על הכפתורים הירוקים עם הפלוס השחור כדי להתקרב; על הכפתור הירוק עם המקף כדי להתרחק; או בחיצים הירוקים למפות סמוכות.


METAR-TAF: